Keene, New York
Current Conditions -  °F | °C
As of 9:51 PM on Wednesday 22 Oct 2014 (Local Time) from KSLK Reporting Station
Overcast Overcast  
Wind Chill: 38°   Ceiling: 3300
Heat Index: 42°   Visibility: 10mi
Dew Point: 38°   Wind: 7mph
Humidity: 85%   Direction: 60°ENE
Pressure: 30.1"   Gusts: NA
Location:  44.26°N, 73.79°W
Report Text: KSLK 230151Z AUTO 06006KT 10SM OVC033 06/03 A3010 RMK AO2 SLP205 T00560033
Loading
Personal Weather Stations






























Interactive Weather Map
Tropical Storm Tracking
New forecast layout! Learn more

10-Day Weather Forecast

Advertisements
Track Severe Weather on mobile